Union, Mississippi
Current Conditions -  °F | °C
As of 6:58 AM on Thursday 18 Dec 2014 (Local Time) from KMEI Reporting Station
Overcast Overcast  
Wind Chill: 38°   Ceiling: 9500
Heat Index: 42°   Visibility: 10mi
Dew Point: 37°   Wind: 6mph
Humidity: 82%   Direction: 40°NE
Pressure: 30.23"   Gusts: NA
Location:  32.57°N, 89.12°W
Report Text: KMEI 181258Z 04005KT 10SM OVC095 06/03 A3023 RMK AO2 SLP235 T00560028
Loading
Personal Weather Stations






























Interactive Weather Map New forecast layout! Learn more

10-Day Weather Forecast

Advertisements
Track Severe Weather on mobile